Terminal Aerodrome Forecast
Issued by NWS

Home | Current Version | Previous Version | Graphics & Text | Print | Product List | Glossary On
Versions: 1 2 3 4 5 6 7 8 9 10 11 12 13 14 15 16 17
000
FTUS43 KTOP 230500
TAFMHK
TAF
KMHK 230522Z 2306/2406 20013G19KT P6SM OVC015
     FM230900 18007KT 5SM -DZ BR OVC007
     FM231600 34010KT 3SM -DZ BR VCTS BKN007 OVC015CB
     FM232100 32019G21KT 5SM -RASN BR OVC020=

USA.gov is the U.S. government's official web portal to all federal, state and local government web resources and services.